sensor_id;sensor_type;location;lat;lon;timestamp;P1;durP1;ratioP1;P2;durP2;ratioP2
59336;SDS011;45115;52.002;4.686;2022-08-19T00:01:14;21.17;;;12.40;;
59336;SDS011;45115;52.002;4.686;2022-08-19T00:03:40;19.02;;;11.48;;
59336;SDS011;45115;52.002;4.686;2022-08-19T00:06:08;19.60;;;11.50;;
59336;SDS011;45115;52.002;4.686;2022-08-19T00:08:35;22.20;;;11.98;;
59336;SDS011;45115;52.002;4.686;2022-08-19T00:11:02;19.45;;;10.68;;
59336;SDS011;45115;52.002;4.686;2022-08-19T00:13:29;19.55;;;11.40;;
59336;SDS011;45115;52.002;4.686;2022-08-19T00:15:56;20.67;;;11.73;;
59336;SDS011;45115;52.002;4.686;2022-08-19T00:18:23;20.13;;;11.90;;
59336;SDS011;45115;52.002;4.686;2022-08-19T00:20:50;21.75;;;12.52;;
59336;SDS011;45115;52.002;4.686;2022-08-19T00:23:18;20.70;;;11.65;;
59336;SDS011;45115;52.002;4.686;2022-08-19T00:25:45;19.02;;;11.35;;
59336;SDS011;45115;52.002;4.686;2022-08-19T00:28:12;21.73;;;10.90;;
59336;SDS011;45115;52.002;4.686;2022-08-19T00:30:38;20.05;;;10.80;;
59336;SDS011;45115;52.002;4.686;2022-08-19T00:33:05;21.42;;;11.70;;
59336;SDS011;45115;52.002;4.686;2022-08-19T00:35:32;21.20;;;11.65;;
59336;SDS011;45115;52.002;4.686;2022-08-19T00:37:59;20.67;;;10.68;;
59336;SDS011;45115;52.002;4.686;2022-08-19T00:40:27;19.42;;;10.88;;
59336;SDS011;45115;52.002;4.686;2022-08-19T00:42:55;22.45;;;12.60;;
59336;SDS011;45115;52.002;4.686;2022-08-19T00:45:23;20.73;;;11.77;;
59336;SDS011;45115;52.002;4.686;2022-08-19T00:47:52;21.38;;;11.63;;
59336;SDS011;45115;52.002;4.686;2022-08-19T00:50:19;22.08;;;12.10;;
59336;SDS011;45115;52.002;4.686;2022-08-19T00:52:49;23.05;;;11.93;;
59336;SDS011;45115;52.002;4.686;2022-08-19T00:55:18;22.80;;;13.20;;
59336;SDS011;45115;52.002;4.686;2022-08-19T00:57:50;22.40;;;12.10;;
59336;SDS011;45115;52.002;4.686;2022-08-19T01:00:20;21.40;;;11.63;;
59336;SDS011;45115;52.002;4.686;2022-08-19T01:02:47;21.95;;;11.88;;
59336;SDS011;45115;52.002;4.686;2022-08-19T01:05:15;20.27;;;10.80;;
59336;SDS011;45115;52.002;4.686;2022-08-19T01:07:46;20.88;;;10.88;;
59336;SDS011;45115;52.002;4.686;2022-08-19T01:10:16;22.55;;;11.30;;
59336;SDS011;45115;52.002;4.686;2022-08-19T01:12:52;18.75;;;10.98;;
59336;SDS011;45115;52.002;4.686;2022-08-19T01:15:23;20.05;;;11.00;;
59336;SDS011;45115;52.002;4.686;2022-08-19T01:17:52;20.45;;;11.13;;
59336;SDS011;45115;52.002;4.686;2022-08-19T01:20:21;19.05;;;11.20;;
59336;SDS011;45115;52.002;4.686;2022-08-19T01:22:51;19.23;;;11.07;;
59336;SDS011;45115;52.002;4.686;2022-08-19T01:25:20;18.83;;;10.57;;
59336;SDS011;45115;52.002;4.686;2022-08-19T01:27:50;19.88;;;10.80;;
59336;SDS011;45115;52.002;4.686;2022-08-19T01:30:17;21.45;;;11.65;;
59336;SDS011;45115;52.002;4.686;2022-08-19T01:32:47;22.65;;;11.15;;
59336;SDS011;45115;52.002;4.686;2022-08-19T01:35:14;20.52;;;11.32;;
59336;SDS011;45115;52.002;4.686;2022-08-19T01:37:43;22.75;;;13.38;;
59336;SDS011;45115;52.002;4.686;2022-08-19T01:40:13;21.73;;;11.98;;
59336;SDS011;45115;52.002;4.686;2022-08-19T01:42:39;19.95;;;11.57;;
59336;SDS011;45115;52.002;4.686;2022-08-19T01:45:07;19.60;;;11.50;;
59336;SDS011;45115;52.002;4.686;2022-08-19T01:47:34;23.90;;;12.45;;
59336;SDS011;45115;52.002;4.686;2022-08-19T01:50:01;21.00;;;11.45;;
59336;SDS011;45115;52.002;4.686;2022-08-19T01:52:29;21.75;;;12.23;;
59336;SDS011;45115;52.002;4.686;2022-08-19T01:54:56;20.60;;;12.93;;
59336;SDS011;45115;52.002;4.686;2022-08-19T01:57:24;23.65;;;13.13;;
59336;SDS011;45115;52.002;4.686;2022-08-19T01:59:51;22.60;;;12.43;;
59336;SDS011;45115;52.002;4.686;2022-08-19T02:02:17;23.65;;;12.88;;
59336;SDS011;45115;52.002;4.686;2022-08-19T02:04:44;19.65;;;11.32;;
59336;SDS011;45115;52.002;4.686;2022-08-19T02:07:11;22.50;;;11.80;;
59336;SDS011;45115;52.002;4.686;2022-08-19T02:09:38;22.33;;;11.95;;
59336;SDS011;45115;52.002;4.686;2022-08-19T02:12:06;19.70;;;11.65;;
59336;SDS011;45115;52.002;4.686;2022-08-19T02:14:35;19.15;;;10.70;;
59336;SDS011;45115;52.002;4.686;2022-08-19T02:17:02;21.00;;;11.23;;
59336;SDS011;45115;52.002;4.686;2022-08-19T02:19:29;22.42;;;12.13;;
59336;SDS011;45115;52.002;4.686;2022-08-19T02:21:57;20.55;;;11.85;;
59336;SDS011;45115;52.002;4.686;2022-08-19T02:24:24;22.58;;;11.68;;
59336;SDS011;45115;52.002;4.686;2022-08-19T02:26:51;20.17;;;12.35;;
59336;SDS011;45115;52.002;4.686;2022-08-19T02:29:18;22.77;;;12.98;;
59336;SDS011;45115;52.002;4.686;2022-08-19T02:31:47;22.88;;;13.25;;
59336;SDS011;45115;52.002;4.686;2022-08-19T02:34:13;22.60;;;12.27;;
59336;SDS011;45115;52.002;4.686;2022-08-19T02:36:40;25.83;;;14.57;;
59336;SDS011;45115;52.002;4.686;2022-08-19T02:39:07;26.10;;;13.80;;
59336;SDS011;45115;52.002;4.686;2022-08-19T02:41:33;24.85;;;15.63;;
59336;SDS011;45115;52.002;4.686;2022-08-19T02:44:00;34.40;;;18.50;;
59336;SDS011;45115;52.002;4.686;2022-08-19T02:46:30;35.17;;;17.90;;
59336;SDS011;45115;52.002;4.686;2022-08-19T02:49:01;33.05;;;17.63;;
59336;SDS011;45115;52.002;4.686;2022-08-19T02:51:30;31.52;;;16.98;;
59336;SDS011;45115;52.002;4.686;2022-08-19T02:53:58;32.83;;;17.65;;
59336;SDS011;45115;52.002;4.686;2022-08-19T02:56:26;34.72;;;17.48;;
59336;SDS011;45115;52.002;4.686;2022-08-19T02:58:53;32.15;;;16.98;;
59336;SDS011;45115;52.002;4.686;2022-08-19T03:01:21;35.78;;;19.25;;
59336;SDS011;45115;52.002;4.686;2022-08-19T03:03:49;32.10;;;16.95;;
59336;SDS011;45115;52.002;4.686;2022-08-19T03:06:17;32.75;;;17.48;;
59336;SDS011;45115;52.002;4.686;2022-08-19T03:08:44;34.33;;;17.75;;
59336;SDS011;45115;52.002;4.686;2022-08-19T03:11:13;31.38;;;17.30;;
59336;SDS011;45115;52.002;4.686;2022-08-19T03:13:41;31.52;;;17.40;;
59336;SDS011;45115;52.002;4.686;2022-08-19T03:16:09;38.17;;;19.70;;
59336;SDS011;45115;52.002;4.686;2022-08-19T03:18:36;36.58;;;19.58;;
59336;SDS011;45115;52.002;4.686;2022-08-19T03:21:03;50.20;;;24.35;;
59336;SDS011;45115;52.002;4.686;2022-08-19T03:23:32;43.58;;;23.83;;
59336;SDS011;45115;52.002;4.686;2022-08-19T03:25:59;46.33;;;23.90;;
59336;SDS011;45115;52.002;4.686;2022-08-19T03:28:29;44.67;;;22.90;;
59336;SDS011;45115;52.002;4.686;2022-08-19T03:30:57;39.67;;;22.50;;
59336;SDS011;45115;52.002;4.686;2022-08-19T03:33:26;39.92;;;21.05;;
59336;SDS011;45115;52.002;4.686;2022-08-19T03:36:01;36.22;;;20.80;;
59336;SDS011;45115;52.002;4.686;2022-08-19T03:38:31;42.22;;;21.45;;
59336;SDS011;45115;52.002;4.686;2022-08-19T03:41:01;40.33;;;20.77;;
59336;SDS011;45115;52.002;4.686;2022-08-19T03:43:28;44.30;;;22.90;;
59336;SDS011;45115;52.002;4.686;2022-08-19T03:46:02;47.53;;;25.50;;
59336;SDS011;45115;52.002;4.686;2022-08-19T03:48:31;48.47;;;24.17;;
59336;SDS011;45115;52.002;4.686;2022-08-19T03:50:58;46.10;;;23.77;;
59336;SDS011;45115;52.002;4.686;2022-08-19T03:53:26;47.58;;;24.25;;
59336;SDS011;45115;52.002;4.686;2022-08-19T03:55:55;45.20;;;23.58;;
59336;SDS011;45115;52.002;4.686;2022-08-19T03:58:24;45.05;;;21.33;;
59336;SDS011;45115;52.002;4.686;2022-08-19T04:00:51;50.20;;;24.08;;
59336;SDS011;45115;52.002;4.686;2022-08-19T04:03:17;45.45;;;23.35;;
59336;SDS011;45115;52.002;4.686;2022-08-19T04:05:45;46.28;;;24.63;;
59336;SDS011;45115;52.002;4.686;2022-08-19T04:08:13;49.25;;;24.75;;
59336;SDS011;45115;52.002;4.686;2022-08-19T04:10:46;47.70;;;24.73;;
59336;SDS011;45115;52.002;4.686;2022-08-19T04:13:15;56.97;;;28.50;;
59336;SDS011;45115;52.002;4.686;2022-08-19T04:15:44;59.42;;;28.40;;
59336;SDS011;45115;52.002;4.686;2022-08-19T04:18:12;56.38;;;29.15;;
59336;SDS011;45115;52.002;4.686;2022-08-19T04:20:39;61.10;;;29.55;;
59336;SDS011;45115;52.002;4.686;2022-08-19T04:23:07;64.88;;;30.45;;
59336;SDS011;45115;52.002;4.686;2022-08-19T04:25:35;61.95;;;29.85;;
59336;SDS011;45115;52.002;4.686;2022-08-19T04:28:03;61.13;;;30.85;;
59336;SDS011;45115;52.002;4.686;2022-08-19T04:30:36;72.13;;;31.73;;
59336;SDS011;45115;52.002;4.686;2022-08-19T04:33:04;63.38;;;29.55;;
59336;SDS011;45115;52.002;4.686;2022-08-19T04:35:34;68.03;;;32.28;;
59336;SDS011;45115;52.002;4.686;2022-08-19T04:38:01;69.35;;;31.95;;
59336;SDS011;45115;52.002;4.686;2022-08-19T04:40:28;82.10;;;35.20;;
59336;SDS011;45115;52.002;4.686;2022-08-19T04:43:12;76.18;;;34.90;;
59336;SDS011;45115;52.002;4.686;2022-08-19T04:45:42;77.10;;;36.60;;
59336;SDS011;45115;52.002;4.686;2022-08-19T04:48:09;81.63;;;36.97;;
59336;SDS011;45115;52.002;4.686;2022-08-19T04:50:36;85.82;;;36.90;;
59336;SDS011;45115;52.002;4.686;2022-08-19T04:53:06;99.67;;;40.00;;
59336;SDS011;45115;52.002;4.686;2022-08-19T04:55:33;112.70;;;41.33;;
59336;SDS011;45115;52.002;4.686;2022-08-19T04:58:00;91.32;;;41.10;;
59336;SDS011;45115;52.002;4.686;2022-08-19T05:00:27;103.13;;;40.08;;
59336;SDS011;45115;52.002;4.686;2022-08-19T05:02:55;103.90;;;40.85;;
59336;SDS011;45115;52.002;4.686;2022-08-19T05:05:22;90.85;;;39.38;;
59336;SDS011;45115;52.002;4.686;2022-08-19T05:07:48;92.32;;;38.25;;
59336;SDS011;45115;52.002;4.686;2022-08-19T05:10:15;94.78;;;39.60;;
59336;SDS011;45115;52.002;4.686;2022-08-19T05:12:42;95.53;;;39.75;;
59336;SDS011;45115;52.002;4.686;2022-08-19T05:15:08;96.43;;;40.05;;
59336;SDS011;45115;52.002;4.686;2022-08-19T05:17:36;95.35;;;38.42;;
59336;SDS011;45115;52.002;4.686;2022-08-19T05:20:05;88.68;;;36.40;;
59336;SDS011;45115;52.002;4.686;2022-08-19T05:22:50;86.78;;;38.28;;
59336;SDS011;45115;52.002;4.686;2022-08-19T05:25:18;82.10;;;37.85;;
59336;SDS011;45115;52.002;4.686;2022-08-19T05:27:47;80.93;;;36.58;;
59336;SDS011;45115;52.002;4.686;2022-08-19T05:30:14;75.53;;;34.47;;
59336;SDS011;45115;52.002;4.686;2022-08-19T05:32:42;84.07;;;36.58;;
59336;SDS011;45115;52.002;4.686;2022-08-19T05:35:11;81.15;;;35.75;;
59336;SDS011;45115;52.002;4.686;2022-08-19T05:37:38;71.28;;;33.83;;
59336;SDS011;45115;52.002;4.686;2022-08-19T05:40:06;73.65;;;35.70;;
59336;SDS011;45115;52.002;4.686;2022-08-19T05:42:33;70.13;;;32.03;;
59336;SDS011;45115;52.002;4.686;2022-08-19T05:45:00;69.43;;;33.00;;
59336;SDS011;45115;52.002;4.686;2022-08-19T05:47:26;76.07;;;34.33;;
59336;SDS011;45115;52.002;4.686;2022-08-19T05:49:53;66.18;;;33.22;;
59336;SDS011;45115;52.002;4.686;2022-08-19T05:52:21;64.82;;;31.13;;
59336;SDS011;45115;52.002;4.686;2022-08-19T05:54:47;65.45;;;31.30;;
59336;SDS011;45115;52.002;4.686;2022-08-19T05:57:16;65.72;;;33.28;;
59336;SDS011;45115;52.002;4.686;2022-08-19T05:59:44;62.65;;;30.95;;
59336;SDS011;45115;52.002;4.686;2022-08-19T06:02:13;65.88;;;33.03;;
59336;SDS011;45115;52.002;4.686;2022-08-19T06:04:40;63.53;;;30.35;;
59336;SDS011;45115;52.002;4.686;2022-08-19T06:07:07;63.67;;;30.98;;
59336;SDS011;45115;52.002;4.686;2022-08-19T06:09:36;54.97;;;29.77;;
59336;SDS011;45115;52.002;4.686;2022-08-19T06:12:03;56.55;;;30.23;;
59336;SDS011;45115;52.002;4.686;2022-08-19T06:14:30;55.03;;;30.55;;
59336;SDS011;45115;52.002;4.686;2022-08-19T06:16:59;55.53;;;28.13;;
59336;SDS011;45115;52.002;4.686;2022-08-19T06:19:27;54.38;;;29.08;;
59336;SDS011;45115;52.002;4.686;2022-08-19T06:21:55;51.22;;;27.33;;
59336;SDS011;45115;52.002;4.686;2022-08-19T06:24:26;48.08;;;27.45;;
59336;SDS011;45115;52.002;4.686;2022-08-19T06:26:56;50.55;;;27.00;;
59336;SDS011;45115;52.002;4.686;2022-08-19T06:29:24;49.22;;;27.70;;
59336;SDS011;45115;52.002;4.686;2022-08-19T06:31:53;51.47;;;27.17;;
59336;SDS011;45115;52.002;4.686;2022-08-19T06:34:21;45.47;;;25.92;;
59336;SDS011;45115;52.002;4.686;2022-08-19T06:36:49;45.13;;;26.42;;
59336;SDS011;45115;52.002;4.686;2022-08-19T06:39:18;41.78;;;24.95;;
59336;SDS011;45115;52.002;4.686;2022-08-19T06:41:48;43.60;;;25.77;;
59336;SDS011;45115;52.002;4.686;2022-08-19T06:44:17;47.70;;;25.63;;
59336;SDS011;45115;52.002;4.686;2022-08-19T06:46:44;43.05;;;25.17;;
59336;SDS011;45115;52.002;4.686;2022-08-19T06:49:11;41.95;;;24.58;;
59336;SDS011;45115;52.002;4.686;2022-08-19T06:51:39;40.38;;;23.92;;
59336;SDS011;45115;52.002;4.686;2022-08-19T06:54:08;43.75;;;23.75;;
59336;SDS011;45115;52.002;4.686;2022-08-19T06:56:36;40.45;;;23.55;;
59336;SDS011;45115;52.002;4.686;2022-08-19T06:59:04;39.00;;;23.45;;
59336;SDS011;45115;52.002;4.686;2022-08-19T07:01:35;35.33;;;22.13;;
59336;SDS011;45115;52.002;4.686;2022-08-19T07:04:03;38.45;;;22.80;;
59336;SDS011;45115;52.002;4.686;2022-08-19T07:06:31;35.40;;;20.75;;
59336;SDS011;45115;52.002;4.686;2022-08-19T07:08:57;36.22;;;22.20;;
59336;SDS011;45115;52.002;4.686;2022-08-19T07:11:24;36.65;;;19.75;;
59336;SDS011;45115;52.002;4.686;2022-08-19T07:13:51;35.28;;;20.08;;
59336;SDS011;45115;52.002;4.686;2022-08-19T07:16:18;35.33;;;21.38;;
59336;SDS011;45115;52.002;4.686;2022-08-19T07:18:47;32.83;;;19.63;;
59336;SDS011;45115;52.002;4.686;2022-08-19T07:21:15;33.80;;;20.60;;
59336;SDS011;45115;52.002;4.686;2022-08-19T07:23:44;30.90;;;18.63;;
59336;SDS011;45115;52.002;4.686;2022-08-19T07:26:13;32.53;;;20.33;;
59336;SDS011;45115;52.002;4.686;2022-08-19T07:28:42;32.35;;;19.02;;
59336;SDS011;45115;52.002;4.686;2022-08-19T07:31:10;31.63;;;20.42;;
59336;SDS011;45115;52.002;4.686;2022-08-19T07:33:39;34.72;;;20.42;;
59336;SDS011;45115;52.002;4.686;2022-08-19T07:36:10;35.00;;;19.95;;
59336;SDS011;45115;52.002;4.686;2022-08-19T07:38:38;30.65;;;18.88;;
59336;SDS011;45115;52.002;4.686;2022-08-19T07:41:06;32.60;;;21.27;;
59336;SDS011;45115;52.002;4.686;2022-08-19T07:43:33;32.20;;;19.75;;
59336;SDS011;45115;52.002;4.686;2022-08-19T07:46:00;34.38;;;19.83;;
59336;SDS011;45115;52.002;4.686;2022-08-19T07:48:27;29.70;;;19.67;;
59336;SDS011;45115;52.002;4.686;2022-08-19T07:50:54;28.35;;;18.98;;
59336;SDS011;45115;52.002;4.686;2022-08-19T07:53:24;29.10;;;19.10;;
59336;SDS011;45115;52.002;4.686;2022-08-19T07:55:51;31.00;;;20.70;;
59336;SDS011;45115;52.002;4.686;2022-08-19T07:58:19;26.70;;;17.08;;
59336;SDS011;45115;52.002;4.686;2022-08-19T08:00:47;27.27;;;17.77;;
59336;SDS011;45115;52.002;4.686;2022-08-19T08:03:16;31.45;;;18.25;;
59336;SDS011;45115;52.002;4.686;2022-08-19T08:05:44;27.63;;;18.83;;
59336;SDS011;45115;52.002;4.686;2022-08-19T08:08:30;26.83;;;18.55;;
59336;SDS011;45115;52.002;4.686;2022-08-19T08:11:15;30.08;;;19.23;;
59336;SDS011;45115;52.002;4.686;2022-08-19T08:13:44;32.08;;;20.13;;
59336;SDS011;45115;52.002;4.686;2022-08-19T08:16:10;30.63;;;19.27;;
59336;SDS011;45115;52.002;4.686;2022-08-19T08:18:37;30.77;;;20.35;;
59336;SDS011;45115;52.002;4.686;2022-08-19T08:21:07;30.30;;;19.13;;
59336;SDS011;45115;52.002;4.686;2022-08-19T08:23:36;29.45;;;18.88;;
59336;SDS011;45115;52.002;4.686;2022-08-19T08:26:02;28.42;;;18.58;;
59336;SDS011;45115;52.002;4.686;2022-08-19T08:28:29;29.52;;;19.83;;
59336;SDS011;45115;52.002;4.686;2022-08-19T08:30:57;31.13;;;19.42;;
59336;SDS011;45115;52.002;4.686;2022-08-19T08:33:25;29.75;;;19.35;;
59336;SDS011;45115;52.002;4.686;2022-08-19T08:35:55;30.13;;;19.02;;
59336;SDS011;45115;52.002;4.686;2022-08-19T08:38:22;31.40;;;19.67;;
59336;SDS011;45115;52.002;4.686;2022-08-19T08:40:51;31.77;;;19.50;;
59336;SDS011;45115;52.002;4.686;2022-08-19T08:43:25;30.48;;;19.33;;
59336;SDS011;45115;52.002;4.686;2022-08-19T08:45:56;35.38;;;20.13;;
59336;SDS011;45115;52.002;4.686;2022-08-19T08:48:34;31.05;;;18.55;;
59336;SDS011;45115;52.002;4.686;2022-08-19T08:51:05;30.70;;;19.48;;
59336;SDS011;45115;52.002;4.686;2022-08-19T08:53:36;30.77;;;18.98;;
59336;SDS011;45115;52.002;4.686;2022-08-19T08:56:06;26.92;;;18.77;;
59336;SDS011;45115;52.002;4.686;2022-08-19T08:58:40;28.95;;;17.90;;
59336;SDS011;45115;52.002;4.686;2022-08-19T09:01:15;26.90;;;17.52;;
59336;SDS011;45115;52.002;4.686;2022-08-19T09:03:42;30.77;;;17.83;;
59336;SDS011;45115;52.002;4.686;2022-08-19T09:06:12;29.80;;;18.15;;
59336;SDS011;45115;52.002;4.686;2022-08-19T09:08:46;31.02;;;17.40;;
59336;SDS011;45115;52.002;4.686;2022-08-19T09:11:22;27.48;;;16.83;;
59336;SDS011;45115;52.002;4.686;2022-08-19T09:14:08;26.30;;;15.70;;
59336;SDS011;45115;52.002;4.686;2022-08-19T09:16:42;25.50;;;16.15;;
59336;SDS011;45115;52.002;4.686;2022-08-19T09:19:08;26.45;;;15.32;;
59336;SDS011;45115;52.002;4.686;2022-08-19T09:21:36;24.13;;;14.77;;
59336;SDS011;45115;52.002;4.686;2022-08-19T09:24:03;21.83;;;13.25;;
59336;SDS011;45115;52.002;4.686;2022-08-19T09:26:32;19.58;;;13.57;;
59336;SDS011;45115;52.002;4.686;2022-08-19T09:28:59;21.40;;;14.57;;
59336;SDS011;45115;52.002;4.686;2022-08-19T09:31:27;24.60;;;14.25;;
59336;SDS011;45115;52.002;4.686;2022-08-19T09:33:55;23.83;;;14.02;;
59336;SDS011;45115;52.002;4.686;2022-08-19T09:36:23;20.75;;;14.40;;
59336;SDS011;45115;52.002;4.686;2022-08-19T09:38:52;22.45;;;14.13;;
59336;SDS011;45115;52.002;4.686;2022-08-19T09:41:20;19.38;;;13.93;;
59336;SDS011;45115;52.002;4.686;2022-08-19T09:43:50;22.23;;;14.50;;
59336;SDS011;45115;52.002;4.686;2022-08-19T09:46:18;21.40;;;14.57;;
59336;SDS011;45115;52.002;4.686;2022-08-19T09:48:45;21.30;;;13.90;;
59336;SDS011;45115;52.002;4.686;2022-08-19T09:51:14;22.88;;;13.98;;
59336;SDS011;45115;52.002;4.686;2022-08-19T09:53:43;21.20;;;14.10;;
59336;SDS011;45115;52.002;4.686;2022-08-19T09:56:10;23.38;;;13.95;;
59336;SDS011;45115;52.002;4.686;2022-08-19T09:58:38;21.50;;;15.13;;
59336;SDS011;45115;52.002;4.686;2022-08-19T10:01:07;19.63;;;12.95;;
59336;SDS011;45115;52.002;4.686;2022-08-19T10:03:34;21.52;;;12.50;;
59336;SDS011;45115;52.002;4.686;2022-08-19T10:06:03;20.80;;;13.30;;
59336;SDS011;45115;52.002;4.686;2022-08-19T10:08:32;24.92;;;14.50;;
59336;SDS011;45115;52.002;4.686;2022-08-19T10:11:02;22.42;;;13.60;;
59336;SDS011;45115;52.002;4.686;2022-08-19T10:13:31;21.13;;;13.23;;
59336;SDS011;45115;52.002;4.686;2022-08-19T10:16:02;17.25;;;11.70;;
59336;SDS011;45115;52.002;4.686;2022-08-19T10:18:32;19.92;;;13.18;;
59336;SDS011;45115;52.002;4.686;2022-08-19T10:21:04;21.42;;;13.88;;
59336;SDS011;45115;52.002;4.686;2022-08-19T10:23:35;23.33;;;13.88;;
59336;SDS011;45115;52.002;4.686;2022-08-19T10:26:03;21.38;;;14.95;;
59336;SDS011;45115;52.002;4.686;2022-08-19T10:28:32;23.13;;;14.70;;
59336;SDS011;45115;52.002;4.686;2022-08-19T10:31:03;22.48;;;14.02;;
59336;SDS011;45115;52.002;4.686;2022-08-19T10:33:32;20.98;;;13.20;;
59336;SDS011;45115;52.002;4.686;2022-08-19T10:36:00;20.60;;;13.00;;
59336;SDS011;45115;52.002;4.686;2022-08-19T10:38:27;18.08;;;10.88;;
59336;SDS011;45115;52.002;4.686;2022-08-19T10:40:55;17.35;;;11.07;;
59336;SDS011;45115;52.002;4.686;2022-08-19T10:43:22;17.13;;;10.40;;
59336;SDS011;45115;52.002;4.686;2022-08-19T10:45:51;16.38;;;10.50;;
59336;SDS011;45115;52.002;4.686;2022-08-19T10:48:19;15.77;;;8.77;;
59336;SDS011;45115;52.002;4.686;2022-08-19T10:50:47;16.33;;;9.32;;
59336;SDS011;45115;52.002;4.686;2022-08-19T10:53:31;13.50;;;7.70;;
59336;SDS011;45115;52.002;4.686;2022-08-19T10:55:58;14.57;;;9.07;;
59336;SDS011;45115;52.002;4.686;2022-08-19T10:58:42;15.57;;;8.95;;
59336;SDS011;45115;52.002;4.686;2022-08-19T11:01:09;17.38;;;7.63;;
59336;SDS011;45115;52.002;4.686;2022-08-19T11:03:36;13.88;;;7.68;;
59336;SDS011;45115;52.002;4.686;2022-08-19T11:06:05;11.45;;;6.97;;
59336;SDS011;45115;52.002;4.686;2022-08-19T11:08:34;12.30;;;7.18;;
59336;SDS011;45115;52.002;4.686;2022-08-19T11:11:02;13.75;;;7.80;;
59336;SDS011;45115;52.002;4.686;2022-08-19T11:13:30;11.13;;;7.28;;
59336;SDS011;45115;52.002;4.686;2022-08-19T11:16:01;11.38;;;6.38;;
59336;SDS011;45115;52.002;4.686;2022-08-19T11:18:30;10.87;;;5.60;;
59336;SDS011;45115;52.002;4.686;2022-08-19T11:21:05;10.05;;;5.35;;
59336;SDS011;45115;52.002;4.686;2022-08-19T11:23:38;7.95;;;4.78;;
59336;SDS011;45115;52.002;4.686;2022-08-19T11:26:06;8.15;;;5.07;;
59336;SDS011;45115;52.002;4.686;2022-08-19T11:28:33;8.98;;;5.50;;
59336;SDS011;45115;52.002;4.686;2022-08-19T11:30:59;8.80;;;5.20;;
59336;SDS011;45115;52.002;4.686;2022-08-19T11:33:28;7.85;;;4.78;;
59336;SDS011;45115;52.002;4.686;2022-08-19T11:35:56;7.38;;;4.90;;
59336;SDS011;45115;52.002;4.686;2022-08-19T11:38:25;11.68;;;4.95;;
59336;SDS011;45115;52.002;4.686;2022-08-19T11:40:55;6.50;;;4.72;;
59336;SDS011;45115;52.002;4.686;2022-08-19T11:43:23;9.40;;;5.45;;
59336;SDS011;45115;52.002;4.686;2022-08-19T11:45:51;8.25;;;4.68;;
59336;SDS011;45115;52.002;4.686;2022-08-19T11:48:18;9.43;;;5.05;;
59336;SDS011;45115;52.002;4.686;2022-08-19T11:50:47;9.15;;;5.28;;
59336;SDS011;45115;52.002;4.686;2022-08-19T11:53:14;8.40;;;4.78;;
59336;SDS011;45115;52.002;4.686;2022-08-19T11:55:42;5.32;;;3.88;;
59336;SDS011;45115;52.002;4.686;2022-08-19T11:58:09;6.50;;;3.90;;
59336;SDS011;45115;52.002;4.686;2022-08-19T12:00:37;8.60;;;4.50;;
59336;SDS011;45115;52.002;4.686;2022-08-19T12:03:04;7.13;;;3.40;;
59336;SDS011;45115;52.002;4.686;2022-08-19T12:05:31;4.93;;;3.65;;
59336;SDS011;45115;52.002;4.686;2022-08-19T12:07:57;5.90;;;3.55;;
59336;SDS011;45115;52.002;4.686;2022-08-19T12:10:24;8.98;;;3.67;;
59336;SDS011;45115;52.002;4.686;2022-08-19T12:12:52;5.07;;;3.70;;
59336;SDS011;45115;52.002;4.686;2022-08-19T12:15:19;7.82;;;3.60;;
59336;SDS011;45115;52.002;4.686;2022-08-19T12:17:45;5.40;;;3.47;;
59336;SDS011;45115;52.002;4.686;2022-08-19T12:20:12;7.10;;;3.55;;
59336;SDS011;45115;52.002;4.686;2022-08-19T12:22:40;6.72;;;3.60;;
59336;SDS011;45115;52.002;4.686;2022-08-19T12:25:07;5.55;;;3.10;;
59336;SDS011;45115;52.002;4.686;2022-08-19T12:27:35;5.05;;;3.22;;
59336;SDS011;45115;52.002;4.686;2022-08-19T12:30:05;6.50;;;3.40;;
59336;SDS011;45115;52.002;4.686;2022-08-19T12:32:34;5.30;;;3.50;;
59336;SDS011;45115;52.002;4.686;2022-08-19T12:35:01;8.48;;;3.05;;
59336;SDS011;45115;52.002;4.686;2022-08-19T12:37:28;4.53;;;2.60;;
59336;SDS011;45115;52.002;4.686;2022-08-19T12:39:56;2.92;;;2.60;;
59336;SDS011;45115;52.002;4.686;2022-08-19T12:42:23;3.88;;;2.50;;
59336;SDS011;45115;52.002;4.686;2022-08-19T12:44:51;2.95;;;2.55;;
59336;SDS011;45115;52.002;4.686;2022-08-19T12:47:19;4.85;;;3.35;;
59336;SDS011;45115;52.002;4.686;2022-08-19T12:49:46;3.67;;;3.28;;
59336;SDS011;45115;52.002;4.686;2022-08-19T12:52:14;4.05;;;3.10;;
59336;SDS011;45115;52.002;4.686;2022-08-19T12:54:41;5.25;;;3.20;;
59336;SDS011;45115;52.002;4.686;2022-08-19T12:57:09;7.47;;;3.72;;
59336;SDS011;45115;52.002;4.686;2022-08-19T12:59:37;5.60;;;4.35;;
59336;SDS011;45115;52.002;4.686;2022-08-19T13:02:05;5.53;;;4.07;;
59336;SDS011;45115;52.002;4.686;2022-08-19T13:04:34;4.22;;;3.83;;
59336;SDS011;45115;52.002;4.686;2022-08-19T13:09:29;6.30;;;3.60;;
59336;SDS011;45115;52.002;4.686;2022-08-19T13:11:56;5.95;;;3.45;;
59336;SDS011;45115;52.002;4.686;2022-08-19T13:14:23;8.10;;;4.50;;
59336;SDS011;45115;52.002;4.686;2022-08-19T13:16:49;9.13;;;5.00;;
59336;SDS011;45115;52.002;4.686;2022-08-19T13:19:16;6.53;;;4.75;;
59336;SDS011;45115;52.002;4.686;2022-08-19T13:21:48;10.40;;;5.20;;
59336;SDS011;45115;52.002;4.686;2022-08-19T13:24:16;9.13;;;5.10;;
59336;SDS011;45115;52.002;4.686;2022-08-19T13:26:43;8.38;;;5.50;;
59336;SDS011;45115;52.002;4.686;2022-08-19T13:29:10;10.25;;;5.63;;
59336;SDS011;45115;52.002;4.686;2022-08-19T13:31:54;9.10;;;5.25;;
59336;SDS011;45115;52.002;4.686;2022-08-19T13:34:38;10.85;;;5.60;;
59336;SDS011;45115;52.002;4.686;2022-08-19T13:37:06;10.60;;;5.90;;
59336;SDS011;45115;52.002;4.686;2022-08-19T13:39:33;10.32;;;5.55;;
59336;SDS011;45115;52.002;4.686;2022-08-19T13:42:01;8.27;;;4.55;;
59336;SDS011;45115;52.002;4.686;2022-08-19T13:44:29;10.50;;;4.72;;
59336;SDS011;45115;52.002;4.686;2022-08-19T13:46:59;7.65;;;4.70;;
59336;SDS011;45115;52.002;4.686;2022-08-19T13:49:30;11.27;;;5.85;;
59336;SDS011;45115;52.002;4.686;2022-08-19T13:51:57;11.13;;;5.72;;
59336;SDS011;45115;52.002;4.686;2022-08-19T13:54:25;11.10;;;6.90;;
59336;SDS011;45115;52.002;4.686;2022-08-19T13:56:53;12.82;;;6.82;;
59336;SDS011;45115;52.002;4.686;2022-08-19T13:59:19;11.70;;;6.70;;
59336;SDS011;45115;52.002;4.686;2022-08-19T14:01:46;14.18;;;7.55;;
59336;SDS011;45115;52.002;4.686;2022-08-19T14:04:13;12.65;;;6.88;;
59336;SDS011;45115;52.002;4.686;2022-08-19T14:06:40;14.35;;;7.07;;
59336;SDS011;45115;52.002;4.686;2022-08-19T14:09:06;11.52;;;6.28;;
59336;SDS011;45115;52.002;4.686;2022-08-19T14:11:34;12.43;;;6.18;;
59336;SDS011;45115;52.002;4.686;2022-08-19T14:14:02;12.93;;;6.80;;
59336;SDS011;45115;52.002;4.686;2022-08-19T14:16:28;13.88;;;7.38;;
59336;SDS011;45115;52.002;4.686;2022-08-19T14:18:55;13.98;;;6.85;;
59336;SDS011;45115;52.002;4.686;2022-08-19T14:21:22;13.38;;;7.10;;
59336;SDS011;45115;52.002;4.686;2022-08-19T14:23:50;11.27;;;6.35;;
59336;SDS011;45115;52.002;4.686;2022-08-19T14:26:18;15.18;;;6.93;;
59336;SDS011;45115;52.002;4.686;2022-08-19T14:28:49;12.60;;;6.57;;
59336;SDS011;45115;52.002;4.686;2022-08-19T14:31:17;12.82;;;6.72;;
59336;SDS011;45115;52.002;4.686;2022-08-19T14:33:45;17.02;;;7.00;;
59336;SDS011;45115;52.002;4.686;2022-08-19T14:36:12;13.77;;;6.82;;